Time;durP1;ratioP1;P1;durP2;ratioP2;P2;SDS_P1;SDS_P2;PMS_P1;PMS_P2;Temp;Humidity;BMP_temperature;BMP_pressure;BME280_temperature;BME280_humidity;BME280_pressure;Samples;Min_cycle;Max_cycle;Signal;HPM_P1;HPM_P2
2022/10/03 00:02:01;;;;;;;1.55;1.50;;;;;;;;;;1783829;79;26224;-55
2022/10/03 00:04:30;;;;;;;1.57;1.52;;;;;;;;;;1784103;78;26279;-55
2022/10/03 00:07:04;;;;;;;1.40;1.40;;;;;;;;;;1792980;78;26816;-54
2022/10/03 00:09:36;;;;;;;1.42;1.42;;;;;;;;;;1783179;78;26284;-55
2022/10/03 00:12:10;;;;;;;1.40;1.40;;;;;;;;;;1798701;78;26254;-54
2022/10/03 00:14:45;;;;;;;1.40;1.40;;;;;;;;;;1781785;78;26688;-55
2022/10/03 00:17:17;;;;;;;1.50;1.50;;;;;;;;;;1790540;78;26263;-56
2022/10/03 00:19:54;;;;;;;1.40;1.40;;;;;;;;;;1794831;78;26629;-55
2022/10/03 00:22:32;;;;;;;1.62;1.62;;;;;;;;;;1793662;78;26613;-55
2022/10/03 00:25:16;;;;;;;1.40;1.40;;;;;;;;;;1805455;78;26702;-56
2022/10/03 00:27:45;;;;;;;1.55;1.55;;;;;;;;;;1777282;79;26306;-56
2022/10/03 00:30:17;;;;;;;1.55;1.52;;;;;;;;;;1781294;78;26227;-55
2022/10/03 00:32:52;;;;;;;1.37;1.37;;;;;;;;;;1773389;79;26253;-56
2022/10/03 00:35:33;;;;;;;1.32;1.32;;;;;;;;;;1783338;79;26233;-59
2022/10/03 00:38:08;;;;;;;1.30;1.30;;;;;;;;;;1788417;79;26323;-55
2022/10/03 00:40:55;;;;;;;1.50;1.40;;;;;;;;;;1780914;79;26353;-54
2022/10/03 00:43:23;;;;;;;1.50;1.50;;;;;;;;;;1788807;78;26372;-54
2022/10/03 00:45:54;;;;;;;1.57;1.57;;;;;;;;;;1781446;79;26833;-56
2022/10/03 00:48:39;;;;;;;1.40;1.40;;;;;;;;;;1773685;79;26268;-54
2022/10/03 00:51:22;;;;;;;1.40;1.40;;;;;;;;;;1768279;79;26364;-54
2022/10/03 00:54:03;;;;;;;1.47;1.40;;;;;;;;;;1788348;79;26762;-55
2022/10/03 00:56:41;;;;;;;1.37;1.37;;;;;;;;;;1778883;79;26271;-52
2022/10/03 00:59:16;;;;;;;1.40;1.40;;;;;;;;;;1774835;79;26270;-52
2022/10/03 01:01:45;;;;;;;1.75;1.65;;;;;;;;;;1781260;79;26238;-55
2022/10/03 01:04:14;;;;;;;1.40;1.40;;;;;;;;;;1766976;79;26290;-52
2022/10/03 01:07:00;;;;;;;1.32;1.32;;;;;;;;;;1773731;79;26361;-54
2022/10/03 01:09:47;;;;;;;1.45;1.40;;;;;;;;;;1774656;79;26786;-55
2022/10/03 01:12:28;;;;;;;1.37;1.30;;;;;;;;;;1756787;79;26309;-55
2022/10/03 01:15:02;;;;;;;1.37;1.37;;;;;;;;;;1771743;79;26349;-57
2022/10/03 01:17:37;;;;;;;1.35;1.35;;;;;;;;;;1783710;79;26302;-53
2022/10/03 01:20:07;;;;;;;1.40;1.40;;;;;;;;;;1769564;79;26369;-54
2022/10/03 01:22:39;;;;;;;1.55;1.55;;;;;;;;;;1781336;79;26305;-53
2022/10/03 01:25:17;;;;;;;2.62;1.50;;;;;;;;;;1773088;79;26468;-56
2022/10/03 01:30:39;;;;;;;1.40;1.30;;;;;;;;;;1761002;79;26354;-52
2022/10/03 01:33:17;;;;;;;1.40;1.40;;;;;;;;;;1763289;79;26306;-56
2022/10/03 01:35:45;;;;;;;1.30;1.30;;;;;;;;;;1756921;79;26679;-55
2022/10/03 01:38:16;;;;;;;1.37;1.37;;;;;;;;;;1766645;79;26290;-56
2022/10/03 01:40:47;;;;;;;1.40;1.40;;;;;;;;;;1770276;79;26949;-56
2022/10/03 01:43:20;;;;;;;1.42;1.42;;;;;;;;;;1776695;79;26267;-56
2022/10/03 01:46:06;;;;;;;1.27;1.27;;;;;;;;;;1770592;79;26272;-54
2022/10/03 01:48:47;;;;;;;1.50;1.50;;;;;;;;;;1791166;79;26230;-54
2022/10/03 01:51:16;;;;;;;1.30;1.30;;;;;;;;;;1737219;79;26278;-54
2022/10/03 01:53:47;;;;;;;1.50;1.40;;;;;;;;;;1795909;79;26187;-54
2022/10/03 01:56:19;;;;;;;1.45;1.35;;;;;;;;;;1767876;79;26253;-56
2022/10/03 01:58:51;;;;;;;1.40;1.40;;;;;;;;;;1765943;79;26247;-56
2022/10/03 02:01:20;;;;;;;1.50;1.40;;;;;;;;;;1780685;78;26268;-54
2022/10/03 02:03:55;;;;;;;1.30;1.30;;;;;;;;;;1791398;78;26520;-56
2022/10/03 02:06:40;;;;;;;1.50;1.50;;;;;;;;;;1780747;79;26241;-57
2022/10/03 02:09:25;;;;;;;1.40;1.40;;;;;;;;;;1789569;78;26353;-56
2022/10/03 02:11:54;;;;;;;1.30;1.30;;;;;;;;;;1784659;79;26235;-56
2022/10/03 02:14:26;;;;;;;1.40;1.40;;;;;;;;;;1787913;79;26220;-56
2022/10/03 02:17:00;;;;;;;1.40;1.40;;;;;;;;;;1778022;79;27433;-54
2022/10/03 02:19:29;;;;;;;1.32;1.32;;;;;;;;;;1786311;79;26271;-54
2022/10/03 02:21:59;;;;;;;1.32;1.32;;;;;;;;;;1798670;79;26758;-55
2022/10/03 02:24:28;;;;;;;1.25;1.25;;;;;;;;;;1798524;79;26775;-53
2022/10/03 02:27:05;;;;;;;1.25;1.25;;;;;;;;;;1786350;79;26264;-53
2022/10/03 02:29:43;;;;;;;1.15;1.15;;;;;;;;;;1786024;79;27339;-54
2022/10/03 02:32:12;;;;;;;1.42;1.42;;;;;;;;;;1793052;79;27446;-54
2022/10/03 02:34:59;;;;;;;1.17;1.17;;;;;;;;;;1795819;79;26783;-57
2022/10/03 02:37:28;;;;;;;1.30;1.30;;;;;;;;;;1784184;79;26163;-55
2022/10/03 02:40:16;;;;;;;1.37;1.30;;;;;;;;;;1796238;79;26332;-54
2022/10/03 02:42:50;;;;;;;2.52;1.10;;;;;;;;;;1791173;78;26211;-54
2022/10/03 02:45:34;;;;;;;1.40;1.40;;;;;;;;;;1791545;78;26267;-55
2022/10/03 02:48:12;;;;;;;1.20;1.20;;;;;;;;;;1697764;83;26802;-57
2022/10/03 02:50:57;;;;;;;1.10;1.10;;;;;;;;;;1744094;79;26275;-55
2022/10/03 02:53:32;;;;;;;1.77;1.67;;;;;;;;;;1777996;79;26878;-55
2022/10/03 02:56:00;;;;;;;1.20;1.20;;;;;;;;;;1769420;79;26357;-54
2022/10/03 02:58:29;;;;;;;1.27;1.20;;;;;;;;;;1786368;79;26286;-55
2022/10/03 03:01:01;;;;;;;1.17;1.12;;;;;;;;;;1763367;79;26310;-55
2022/10/03 03:03:35;;;;;;;1.37;1.27;;;;;;;;;;1768338;79;26311;-56
2022/10/03 03:06:21;;;;;;;1.10;1.10;;;;;;;;;;1766194;79;26849;-52
2022/10/03 03:08:57;;;;;;;1.35;1.30;;;;;;;;;;1753552;81;26278;-56
2022/10/03 03:11:26;;;;;;;1.60;1.25;;;;;;;;;;1752455;79;26555;-55
2022/10/03 03:13:58;;;;;;;1.20;1.20;;;;;;;;;;1766049;79;26322;-56
2022/10/03 03:16:42;;;;;;;1.00;1.00;;;;;;;;;;1755431;79;26353;-55
2022/10/03 03:19:12;;;;;;;1.20;1.20;;;;;;;;;;1720777;82;27517;-56
2022/10/03 03:21:46;;;;;;;1.30;1.30;;;;;;;;;;1738229;79;26298;-56
2022/10/03 03:24:18;;;;;;;1.55;1.55;;;;;;;;;;1755537;79;26400;-52
2022/10/03 03:26:56;;;;;;;1.30;1.30;;;;;;;;;;1773206;79;27875;-55
2022/10/03 03:29:28;;;;;;;1.10;1.10;;;;;;;;;;1756625;79;26655;-54
2022/10/03 03:32:06;;;;;;;1.20;1.20;;;;;;;;;;1758786;79;26322;-53
2022/10/03 03:34:35;;;;;;;1.20;1.20;;;;;;;;;;1771784;79;26359;-53
2022/10/03 03:37:03;;;;;;;1.10;1.10;;;;;;;;;;1768289;79;26357;-55
2022/10/03 03:39:44;;;;;;;1.10;1.10;;;;;;;;;;1767630;79;26581;-55
2022/10/03 03:42:13;;;;;;;1.20;1.20;;;;;;;;;;1759010;79;26303;-55
2022/10/03 03:44:45;;;;;;;1.25;1.25;;;;;;;;;;1770328;79;26329;-54
2022/10/03 03:47:27;;;;;;;1.10;1.10;;;;;;;;;;1770560;79;26335;-55
2022/10/03 03:50:07;;;;;;;1.20;1.20;;;;;;;;;;1752874;79;26845;-54
2022/10/03 03:52:36;;;;;;;1.40;1.40;;;;;;;;;;1777862;79;26282;-55
2022/10/03 03:55:05;;;;;;;1.12;1.12;;;;;;;;;;1778552;78;26282;-52
2022/10/03 03:57:50;;;;;;;1.20;1.20;;;;;;;;;;1749071;79;26735;-55
2022/10/03 04:00:22;;;;;;;1.27;1.27;;;;;;;;;;1761769;79;26293;-56
2022/10/03 04:02:56;;;;;;;1.20;1.20;;;;;;;;;;1758321;79;26771;-54
2022/10/03 04:05:28;;;;;;;1.07;1.07;;;;;;;;;;1769778;79;26253;-53
2022/10/03 04:08:11;;;;;;;1.20;1.20;;;;;;;;;;1775178;79;26318;-56
2022/10/03 04:10:42;;;;;;;1.20;1.20;;;;;;;;;;1775607;79;26291;-56
2022/10/03 04:13:23;;;;;;;1.10;1.10;;;;;;;;;;1755631;79;26294;-58
2022/10/03 04:15:52;;;;;;;1.20;1.20;;;;;;;;;;1759907;79;26271;-54
2022/10/03 04:21:10;;;;;;;1.00;1.00;;;;;;;;;;1765493;79;26837;-56
2022/10/03 04:23:39;;;;;;;1.10;1.10;;;;;;;;;;1766535;79;26285;-55
2022/10/03 04:26:23;;;;;;;1.22;1.22;;;;;;;;;;1761430;79;26349;-54
2022/10/03 04:29:10;;;;;;;1.17;1.17;;;;;;;;;;1768505;79;26238;-56
2022/10/03 04:31:40;;;;;;;1.00;1.00;;;;;;;;;;1769244;79;26778;-54
2022/10/03 04:34:09;;;;;;;1.00;1.00;;;;;;;;;;1766552;79;26353;-54
2022/10/03 04:36:46;;;;;;;1.10;1.10;;;;;;;;;;1765805;79;26302;-56
2022/10/03 04:39:27;;;;;;;1.10;1.10;;;;;;;;;;1751853;79;26753;-57
2022/10/03 04:41:56;;;;;;;1.05;1.05;;;;;;;;;;1756215;79;26372;-57
2022/10/03 04:44:42;;;;;;;1.17;1.17;;;;;;;;;;1771071;79;26250;-56
2022/10/03 04:47:11;;;;;;;1.20;1.20;;;;;;;;;;1779144;79;27186;-56
2022/10/03 04:49:42;;;;;;;1.10;1.10;;;;;;;;;;1775695;78;27190;-55
2022/10/03 04:52:24;;;;;;;1.32;1.20;;;;;;;;;;1731696;79;26698;-55
2022/10/03 04:54:58;;;;;;;1.15;1.15;;;;;;;;;;1793878;79;26234;-57
2022/10/03 04:57:27;;;;;;;1.50;1.42;;;;;;;;;;1782712;78;26220;-54
2022/10/03 05:00:08;;;;;;;1.12;1.10;;;;;;;;;;1798629;79;26246;-55
2022/10/03 05:02:52;;;;;;;1.80;1.30;;;;;;;;;;1795165;79;26331;-55
2022/10/03 05:05:36;;;;;;;2.75;1.25;;;;;;;;;;1787104;78;26439;-54
2022/10/03 05:08:06;;;;;;;3.58;1.82;;;;;;;;;;1791853;79;26240;-55
2022/10/03 05:10:34;;;;;;;3.87;1.40;;;;;;;;;;1791719;78;26293;-55
2022/10/03 05:13:11;;;;;;;5.00;1.60;;;;;;;;;;1793585;79;26314;-52
2022/10/03 05:15:46;;;;;;;6.58;1.40;;;;;;;;;;1787758;79;26295;-55
2022/10/03 05:18:20;;;;;;;5.53;1.50;;;;;;;;;;1774456;79;26605;-52
2022/10/03 05:21:05;;;;;;;4.05;1.60;;;;;;;;;;1781953;78;26307;-54
2022/10/03 05:23:39;;;;;;;1.85;1.30;;;;;;;;;;1771354;79;26313;-55
2022/10/03 05:26:08;;;;;;;4.35;1.30;;;;;;;;;;1770645;78;26724;-55
2022/10/03 05:28:52;;;;;;;4.87;1.40;;;;;;;;;;1770777;79;26558;-56
2022/10/03 05:31:24;;;;;;;7.22;1.52;;;;;;;;;;1796541;79;27210;-56
2022/10/03 05:34:02;;;;;;;6.05;1.60;;;;;;;;;;1776829;79;26334;-56
2022/10/03 05:36:43;;;;;;;4.35;1.47;;;;;;;;;;1774350;78;26269;-54
2022/10/03 05:39:28;;;;;;;2.20;1.40;;;;;;;;;;1769577;79;26231;-55
2022/10/03 05:42:06;;;;;;;5.80;1.40;;;;;;;;;;1798206;79;26813;-54
2022/10/03 05:44:44;;;;;;;1.82;1.40;;;;;;;;;;1786692;79;26251;-57
2022/10/03 05:50:06;;;;;;;3.05;1.30;;;;;;;;;;1760619;79;26717;-54
2022/10/03 05:52:41;;;;;;;3.75;1.30;;;;;;;;;;1779640;78;26772;-55
2022/10/03 05:55:12;;;;;;;1.47;1.17;;;;;;;;;;1795185;78;26324;-55
2022/10/03 05:57:47;;;;;;;3.83;1.50;;;;;;;;;;1794556;79;26553;-54
2022/10/03 06:00:28;;;;;;;2.67;1.25;;;;;;;;;;1773028;79;26301;-55
2022/10/03 06:03:06;;;;;;;1.85;1.25;;;;;;;;;;1741449;78;26226;-56
2022/10/03 06:05:52;;;;;;;6.17;1.20;;;;;;;;;;1758980;79;26284;-56
2022/10/03 06:08:24;;;;;;;2.15;1.20;;;;;;;;;;1784785;79;26723;-57
2022/10/03 06:11:10;;;;;;;3.85;1.20;;;;;;;;;;1797183;78;26262;-55
2022/10/03 06:13:57;;;;;;;3.80;1.30;;;;;;;;;;1771819;79;26318;-55
2022/10/03 06:16:29;;;;;;;1.52;1.15;;;;;;;;;;1776395;79;26230;-53
2022/10/03 06:18:57;;;;;;;1.12;1.10;;;;;;;;;;1787367;79;26382;-55
2022/10/03 06:21:43;;;;;;;1.65;1.10;;;;;;;;;;1795261;78;26226;-56
2022/10/03 06:24:14;;;;;;;1.50;1.10;;;;;;;;;;1786365;79;26789;-55
2022/10/03 06:26:46;;;;;;;2.70;1.02;;;;;;;;;;1796148;79;26740;-56
2022/10/03 06:29:15;;;;;;;1.42;1.30;;;;;;;;;;1795864;79;26704;-57
2022/10/03 06:31:56;;;;;;;1.30;1.20;;;;;;;;;;1791727;79;26172;-56
2022/10/03 06:34:25;;;;;;;1.65;1.10;;;;;;;;;;1781043;78;26195;-57
2022/10/03 06:37:02;;;;;;;1.00;1.00;;;;;;;;;;1789355;78;26334;-57
2022/10/03 06:39:48;;;;;;;1.47;1.20;;;;;;;;;;1792231;79;26251;-57
2022/10/03 06:42:17;;;;;;;1.75;1.22;;;;;;;;;;1773824;79;26752;-57
2022/10/03 06:45:05;;;;;;;1.15;1.15;;;;;;;;;;1713744;80;26776;-57
2022/10/03 06:47:51;;;;;;;1.10;1.10;;;;;;;;;;1779520;79;26311;-57
2022/10/03 06:50:19;;;;;;;0.95;0.95;;;;;;;;;;1791719;79;26765;-55
2022/10/03 06:53:03;;;;;;;1.05;1.00;;;;;;;;;;1798127;78;26857;-55
2022/10/03 06:55:32;;;;;;;0.98;0.98;;;;;;;;;;1791274;78;26746;-54
2022/10/03 06:58:19;;;;;;;1.20;1.10;;;;;;;;;;1789993;79;26787;-55
2022/10/03 07:00:48;;;;;;;1.10;1.10;;;;;;;;;;1788933;79;26183;-56
2022/10/03 07:03:35;;;;;;;0.90;0.90;;;;;;;;;;1792279;78;26292;-55
2022/10/03 07:06:10;;;;;;;0.90;0.90;;;;;;;;;;1776869;79;26291;-54
2022/10/03 07:08:58;;;;;;;1.30;1.00;;;;;;;;;;1785563;79;26768;-56
2022/10/03 07:11:31;;;;;;;0.90;0.90;;;;;;;;;;1789435;79;26239;-55
2022/10/03 07:14:00;;;;;;;0.90;0.90;;;;;;;;;;1740658;80;26273;-56
2022/10/03 07:16:38;;;;;;;1.00;1.00;;;;;;;;;;1782979;79;26317;-57
2022/10/03 07:19:13;;;;;;;0.95;0.90;;;;;;;;;;1789587;79;26357;-56
2022/10/03 07:21:42;;;;;;;0.90;0.90;;;;;;;;;;1725784;79;26324;-56
2022/10/03 07:24:11;;;;;;;1.17;1.00;;;;;;;;;;1789035;79;26225;-56
2022/10/03 07:26:52;;;;;;;0.80;0.80;;;;;;;;;;1777510;78;26285;-53
2022/10/03 07:29:36;;;;;;;1.10;1.00;;;;;;;;;;1810746;78;26252;-55
2022/10/03 07:32:14;;;;;;;0.90;0.90;;;;;;;;;;1780372;79;26290;-55
2022/10/03 07:34:43;;;;;;;1.20;0.88;;;;;;;;;;1794369;79;26183;-55
2022/10/03 07:40:14;;;;;;;0.90;0.90;;;;;;;;;;1784715;79;26848;-54
2022/10/03 07:42:49;;;;;;;2.08;1.00;;;;;;;;;;1794675;78;26263;-53
2022/10/03 07:45:21;;;;;;;0.88;0.88;;;;;;;;;;1776153;79;26277;-57
2022/10/03 07:47:53;;;;;;;1.20;1.00;;;;;;;;;;1778171;78;26688;-55
2022/10/03 07:50:31;;;;;;;1.30;1.02;;;;;;;;;;1775928;79;26244;-54
2022/10/03 07:53:00;;;;;;;1.00;1.00;;;;;;;;;;1784106;79;26341;-52
2022/10/03 07:55:29;;;;;;;0.90;0.90;;;;;;;;;;1784044;78;26275;-56
2022/10/03 07:58:12;;;;;;;0.90;0.90;;;;;;;;;;1788080;79;26243;-53
2022/10/03 08:00:56;;;;;;;0.80;0.80;;;;;;;;;;1792943;78;26226;-55
2022/10/03 08:03:28;;;;;;;0.80;0.80;;;;;;;;;;1787159;79;26254;-53
2022/10/03 08:06:00;;;;;;;0.90;0.90;;;;;;;;;;1782277;78;26287;-53
2022/10/03 08:08:51;;;;;;;0.70;0.70;;;;;;;;;;1776874;79;26270;-54
2022/10/03 08:11:37;;;;;;;0.93;0.93;;;;;;;;;;1776419;78;26304;-55
2022/10/03 08:14:06;;;;;;;0.80;0.80;;;;;;;;;;1793495;79;26292;-56
2022/10/03 08:16:37;;;;;;;0.80;0.80;;;;;;;;;;1788169;78;26693;-56
2022/10/03 08:19:09;;;;;;;0.90;0.90;;;;;;;;;;1789895;79;26792;-55
2022/10/03 08:21:54;;;;;;;0.85;0.85;;;;;;;;;;1795588;78;26695;-54
2022/10/03 08:24:23;;;;;;;0.90;0.90;;;;;;;;;;1786356;79;26287;-57
2022/10/03 08:26:55;;;;;;;0.98;0.98;;;;;;;;;;1787150;79;26254;-54
2022/10/03 08:29:40;;;;;;;1.30;1.00;;;;;;;;;;1778114;79;26276;-55
2022/10/03 08:32:10;;;;;;;0.88;0.88;;;;;;;;;;1787996;79;26253;-54
2022/10/03 08:34:52;;;;;;;1.00;1.00;;;;;;;;;;1746684;79;26329;-53
2022/10/03 08:37:24;;;;;;;1.00;1.00;;;;;;;;;;1785149;78;26226;-56
2022/10/03 08:39:52;;;;;;;0.70;0.70;;;;;;;;;;1778368;78;26184;-55
2022/10/03 08:42:34;;;;;;;0.90;0.90;;;;;;;;;;1789638;78;26210;-57
2022/10/03 08:45:09;;;;;;;0.80;0.80;;;;;;;;;;1800612;79;26733;-53
2022/10/03 08:47:37;;;;;;;0.90;0.90;;;;;;;;;;1799184;79;26350;-52
2022/10/03 08:50:23;;;;;;;1.00;1.00;;;;;;;;;;1769884;79;26407;-56
2022/10/03 08:52:52;;;;;;;0.93;0.93;;;;;;;;;;1788950;79;26290;-55
2022/10/03 08:55:21;;;;;;;0.88;0.88;;;;;;;;;;1760799;79;26317;-54
2022/10/03 08:57:53;;;;;;;0.88;0.88;;;;;;;;;;1751928;79;26754;-55
2022/10/03 09:00:25;;;;;;;1.02;1.00;;;;;;;;;;1779222;79;26272;-56
2022/10/03 09:02:54;;;;;;;0.90;0.90;;;;;;;;;;1791525;79;26294;-54
2022/10/03 09:05:29;;;;;;;0.90;0.90;;;;;;;;;;1776444;79;26211;-56
2022/10/03 09:08:04;;;;;;;1.00;0.93;;;;;;;;;;1791399;79;26337;-52
2022/10/03 09:10:49;;;;;;;1.85;1.00;;;;;;;;;;1778283;79;26345;-55
2022/10/03 09:13:21;;;;;;;0.90;0.90;;;;;;;;;;1774726;79;26813;-56
2022/10/03 09:16:01;;;;;;;0.90;0.90;;;;;;;;;;1769168;79;26387;-55
2022/10/03 09:18:47;;;;;;;1.00;1.00;;;;;;;;;;1780208;79;26282;-54
2022/10/03 09:21:16;;;;;;;0.95;0.95;;;;;;;;;;1777317;79;26283;-52
2022/10/03 09:23:54;;;;;;;0.90;0.90;;;;;;;;;;1777949;79;26767;-54
2022/10/03 09:26:38;;;;;;;0.90;0.90;;;;;;;;;;1780251;79;26862;-54
2022/10/03 09:29:07;;;;;;;0.80;0.80;;;;;;;;;;1774625;79;27655;-56
2022/10/03 09:31:51;;;;;;;1.17;0.93;;;;;;;;;;1780653;79;27674;-53
2022/10/03 09:34:32;;;;;;;0.90;0.90;;;;;;;;;;1780752;79;26307;-55
2022/10/03 09:37:11;;;;;;;1.20;0.90;;;;;;;;;;1762491;79;26299;-54
2022/10/03 09:39:49;;;;;;;0.95;0.95;;;;;;;;;;1778509;79;26310;-54
2022/10/03 09:42:19;;;;;;;0.95;0.95;;;;;;;;;;1805736;79;26704;-56
2022/10/03 09:44:47;;;;;;;0.90;0.90;;;;;;;;;;1778107;79;26295;-55
2022/10/03 09:47:34;;;;;;;1.07;1.07;;;;;;;;;;1767442;79;26727;-56
2022/10/03 09:50:19;;;;;;;0.93;0.93;;;;;;;;;;1782669;77;26303;-52
2022/10/03 09:52:49;;;;;;;0.98;0.98;;;;;;;;;;1795333;79;26801;-54
2022/10/03 09:55:35;;;;;;;0.90;0.90;;;;;;;;;;1783697;79;26314;-55
2022/10/03 09:58:07;;;;;;;0.90;0.90;;;;;;;;;;1790582;79;26344;-55
2022/10/03 10:00:53;;;;;;;1.10;1.10;;;;;;;;;;1774985;79;26370;-55
2022/10/03 10:03:28;;;;;;;0.90;0.90;;;;;;;;;;1784833;79;26302;-53
2022/10/03 10:06:09;;;;;;;0.90;0.90;;;;;;;;;;1779603;79;26369;-53
2022/10/03 10:08:47;;;;;;;1.00;1.00;;;;;;;;;;1794614;79;26251;-55
2022/10/03 10:11:28;;;;;;;1.00;1.00;;;;;;;;;;1781292;79;26390;-54
2022/10/03 10:13:56;;;;;;;0.90;0.90;;;;;;;;;;1796115;79;26683;-56
2022/10/03 10:16:31;;;;;;;0.90;0.90;;;;;;;;;;1786890;79;26332;-56
2022/10/03 10:19:00;;;;;;;0.88;0.88;;;;;;;;;;1785465;79;26710;-53
2022/10/03 10:21:32;;;;;;;0.90;0.90;;;;;;;;;;1784083;79;26682;-56
2022/10/03 10:24:19;;;;;;;0.80;0.80;;;;;;;;;;1785625;79;26266;-53
2022/10/03 10:26:47;;;;;;;1.00;1.00;;;;;;;;;;1776212;79;26232;-54
2022/10/03 10:29:19;;;;;;;1.10;1.10;;;;;;;;;;1787749;79;26272;-55
2022/10/03 10:32:03;;;;;;;0.82;0.82;;;;;;;;;;1771104;79;26398;-53
2022/10/03 10:34:32;;;;;;;0.93;0.93;;;;;;;;;;1758656;79;26405;-54
2022/10/03 10:37:01;;;;;;;1.10;1.10;;;;;;;;;;1766250;79;26280;-53
2022/10/03 10:39:47;;;;;;;1.00;1.00;;;;;;;;;;1784752;79;26278;-57
2022/10/03 10:42:31;;;;;;;1.07;1.07;;;;;;;;;;1786346;79;26373;-52
2022/10/03 10:45:15;;;;;;;1.00;1.00;;;;;;;;;;1771967;79;27372;-54
2022/10/03 10:47:52;;;;;;;1.40;1.10;;;;;;;;;;1784479;79;26325;-55
2022/10/03 10:50:36;;;;;;;0.95;0.95;;;;;;;;;;1780350;79;26786;-55
2022/10/03 10:53:22;;;;;;;1.10;1.10;;;;;;;;;;1785731;79;26303;-54
2022/10/03 10:56:07;;;;;;;1.15;1.15;;;;;;;;;;1795191;79;26799;-53
2022/10/03 10:58:36;;;;;;;0.93;0.93;;;;;;;;;;1782376;79;26317;-55
2022/10/03 11:01:08;;;;;;;1.45;1.20;;;;;;;;;;1776262;79;26275;-54
2022/10/03 11:03:49;;;;;;;1.10;1.10;;;;;;;;;;1785887;79;26293;-54
2022/10/03 11:06:34;;;;;;;1.10;1.10;;;;;;;;;;1781269;78;26252;-54
2022/10/03 11:09:12;;;;;;;1.15;1.15;;;;;;;;;;1787872;79;26234;-55
2022/10/03 11:11:57;;;;;;;1.00;1.00;;;;;;;;;;1785894;79;26284;-53
2022/10/03 11:14:36;;;;;;;1.20;1.20;;;;;;;;;;1785854;79;26316;-52
2022/10/03 11:17:04;;;;;;;1.10;1.10;;;;;;;;;;1784563;79;26726;-53
2022/10/03 11:19:33;;;;;;;1.17;1.17;;;;;;;;;;1800512;79;26242;-54
2022/10/03 11:22:04;;;;;;;1.02;1.02;;;;;;;;;;1790223;79;26384;-55
2022/10/03 11:24:35;;;;;;;0.90;0.90;;;;;;;;;;1784983;79;27368;-55
2022/10/03 11:27:13;;;;;;;1.20;1.20;;;;;;;;;;1776418;79;26316;-52
2022/10/03 11:29:48;;;;;;;1.00;1.00;;;;;;;;;;1776749;79;26688;-57
2022/10/03 11:32:35;;;;;;;1.20;1.20;;;;;;;;;;1776966;79;26941;-53
2022/10/03 11:35:04;;;;;;;1.10;1.10;;;;;;;;;;1780228;78;26251;-52
2022/10/03 11:37:48;;;;;;;1.07;1.07;;;;;;;;;;1778887;78;26659;-54
2022/10/03 11:40:18;;;;;;;1.10;1.10;;;;;;;;;;1796740;79;26253;-56
2022/10/03 11:43:03;;;;;;;1.07;1.07;;;;;;;;;;1774946;79;26317;-55
2022/10/03 11:45:41;;;;;;;1.25;1.25;;;;;;;;;;1797665;79;26290;-52
2022/10/03 11:48:26;;;;;;;1.20;1.20;;;;;;;;;;1786439;79;26336;-53
2022/10/03 11:50:56;;;;;;;1.15;1.15;;;;;;;;;;1772400;79;26804;-54
2022/10/03 11:53:42;;;;;;;1.12;1.12;;;;;;;;;;1780079;79;26401;-53
2022/10/03 11:56:20;;;;;;;1.30;1.30;;;;;;;;;;1771770;79;26302;-55
2022/10/03 11:58:49;;;;;;;1.22;1.22;;;;;;;;;;1795896;79;26298;-56
2022/10/03 12:01:17;;;;;;;1.20;1.20;;;;;;;;;;1766113;79;26758;-51
2022/10/03 12:03:52;;;;;;;1.40;1.40;;;;;;;;;;1753771;79;26306;-52
2022/10/03 12:09:13;;;;;;;1.40;1.40;;;;;;;;;;1752664;79;27420;-53
2022/10/03 12:11:42;;;;;;;1.30;1.30;;;;;;;;;;1776093;79;26283;-51
2022/10/03 12:14:11;;;;;;;1.47;1.47;;;;;;;;;;1758240;79;26387;-54
2022/10/03 12:16:49;;;;;;;1.30;1.30;;;;;;;;;;1814194;79;26337;-54
2022/10/03 12:19:36;;;;;;;1.40;1.40;;;;;;;;;;1771505;78;27550;-55
2022/10/03 12:22:05;;;;;;;1.50;1.50;;;;;;;;;;1798241;79;26279;-57
2022/10/03 12:24:33;;;;;;;1.50;1.50;;;;;;;;;;1772111;79;26298;-53
2022/10/03 12:27:02;;;;;;;1.37;1.37;;;;;;;;;;1781034;79;26275;-51
2022/10/03 12:29:31;;;;;;;1.40;1.40;;;;;;;;;;1790180;79;26272;-53
2022/10/03 12:32:16;;;;;;;1.35;1.35;;;;;;;;;;1762034;79;26429;-52
2022/10/03 12:34:51;;;;;;;1.40;1.40;;;;;;;;;;1779581;79;26287;-54
2022/10/03 12:37:35;;;;;;;1.40;1.40;;;;;;;;;;1776858;79;26677;-54
2022/10/03 12:40:09;;;;;;;1.42;1.42;;;;;;;;;;1784024;79;26732;-52
2022/10/03 12:42:40;;;;;;;1.40;1.40;;;;;;;;;;1775144;79;26822;-52
2022/10/03 12:45:15;;;;;;;1.30;1.30;;;;;;;;;;1753744;79;26763;-53
2022/10/03 12:48:02;;;;;;;1.52;1.52;;;;;;;;;;1770764;79;26945;-53
2022/10/03 12:50:32;;;;;;;1.50;1.50;;;;;;;;;;1767111;79;26316;-52
2022/10/03 12:53:01;;;;;;;1.50;1.50;;;;;;;;;;1795817;78;26308;-53
2022/10/03 12:55:33;;;;;;;1.70;1.70;;;;;;;;;;1780389;79;26344;-52
2022/10/03 12:58:01;;;;;;;1.42;1.42;;;;;;;;;;1772464;78;26388;-50
2022/10/03 13:00:33;;;;;;;1.50;1.50;;;;;;;;;;1774494;79;26180;-52
2022/10/03 13:03:16;;;;;;;1.75;1.67;;;;;;;;;;1780308;79;27422;-51
2022/10/03 13:06:03;;;;;;;1.50;1.50;;;;;;;;;;1790572;78;26753;-55
2022/10/03 13:08:31;;;;;;;1.50;1.50;;;;;;;;;;1780967;79;26293;-51
2022/10/03 13:11:03;;;;;;;1.60;1.60;;;;;;;;;;1785208;79;26275;-52
2022/10/03 13:13:32;;;;;;;1.60;1.60;;;;;;;;;;1780558;79;26230;-53
2022/10/03 13:16:04;;;;;;;1.75;1.75;;;;;;;;;;1794252;79;26226;-53
2022/10/03 13:18:44;;;;;;;1.70;1.60;;;;;;;;;;1798406;79;26349;-54
2022/10/03 13:21:18;;;;;;;1.60;1.60;;;;;;;;;;1792750;79;26296;-54
2022/10/03 13:23:50;;;;;;;1.67;1.67;;;;;;;;;;1783724;79;26696;-54
2022/10/03 13:26:19;;;;;;;1.65;1.65;;;;;;;;;;1796686;78;26250;-53
2022/10/03 13:29:12;;;;;;;1.40;1.40;;;;;;;;;;1787488;78;26229;-54
2022/10/03 13:31:34;;;;;;;1.70;1.70;;;;;;;;;;1799671;78;26321;-55
2022/10/03 13:34:03;;;;;;;1.60;1.60;;;;;;;;;;1793497;79;26877;-49
2022/10/03 13:36:32;;;;;;;1.60;1.60;;;;;;;;;;1786436;79;26833;-52
2022/10/03 13:39:16;;;;;;;1.70;1.70;;;;;;;;;;1780385;79;26230;-53
2022/10/03 13:42:00;;;;;;;1.67;1.67;;;;;;;;;;1797454;79;26238;-52
2022/10/03 13:44:38;;;;;;;1.60;1.60;;;;;;;;;;1799373;78;26234;-54
2022/10/03 13:47:24;;;;;;;1.77;1.77;;;;;;;;;;1783349;78;26239;-52
2022/10/03 13:50:02;;;;;;;1.55;1.55;;;;;;;;;;1786814;79;26825;-51
2022/10/03 13:52:33;;;;;;;1.57;1.57;;;;;;;;;;1778457;79;26620;-53
2022/10/03 13:55:05;;;;;;;1.55;1.55;;;;;;;;;;1780352;78;26317;-54
2022/10/03 13:57:34;;;;;;;1.50;1.50;;;;;;;;;;1774016;79;26354;-52
2022/10/03 14:00:12;;;;;;;1.40;1.40;;;;;;;;;;1763291;79;26356;-54
2022/10/03 14:02:47;;;;;;;1.60;1.60;;;;;;;;;;1792240;79;26358;-57
2022/10/03 14:05:25;;;;;;;1.30;1.30;;;;;;;;;;1774134;79;26227;-53
2022/10/03 14:08:09;;;;;;;1.52;1.52;;;;;;;;;;1728717;81;26305;-49
2022/10/03 14:10:49;;;;;;;1.50;1.50;;;;;;;;;;1761101;79;26341;-56
2022/10/03 14:13:18;;;;;;;1.35;1.35;;;;;;;;;;1761099;79;26766;-53
2022/10/03 14:15:54;;;;;;;1.50;1.50;;;;;;;;;;1762321;79;26778;-54
2022/10/03 14:18:25;;;;;;;1.70;1.70;;;;;;;;;;1752767;79;26783;-55
2022/10/03 14:20:55;;;;;;;1.50;1.50;;;;;;;;;;1762882;79;26821;-55
2022/10/03 14:23:27;;;;;;;1.40;1.40;;;;;;;;;;1755003;79;26337;-55
2022/10/03 14:26:01;;;;;;;1.50;1.50;;;;;;;;;;1769369;79;26299;-53
2022/10/03 14:28:30;;;;;;;1.60;1.60;;;;;;;;;;1781237;79;26279;-53
2022/10/03 14:31:01;;;;;;;1.70;1.70;;;;;;;;;;1780606;79;26295;-53
2022/10/03 14:33:36;;;;;;;1.65;1.65;;;;;;;;;;1772482;79;27329;-53
2022/10/03 14:36:08;;;;;;;1.60;1.60;;;;;;;;;;1768209;79;26340;-55
2022/10/03 14:38:59;;;;;;;1.62;1.62;;;;;;;;;;1779530;79;26818;-55
2022/10/03 14:41:34;;;;;;;1.50;1.50;;;;;;;;;;1781279;79;26763;-52
2022/10/03 14:44:05;;;;;;;1.60;1.60;;;;;;;;;;1778450;79;26283;-55
2022/10/03 14:46:34;;;;;;;1.60;1.60;;;;;;;;;;1759313;79;26290;-54
2022/10/03 14:49:04;;;;;;;1.82;1.82;;;;;;;;;;1761550;79;26263;-56
2022/10/03 14:51:39;;;;;;;1.55;1.55;;;;;;;;;;1768681;79;26330;-53
2022/10/03 14:54:10;;;;;;;1.55;1.55;;;;;;;;;;1793978;79;26678;-53
2022/10/03 14:56:42;;;;;;;1.40;1.40;;;;;;;;;;1771664;78;27192;-53
2022/10/03 14:59:13;;;;;;;1.70;1.70;;;;;;;;;;1791732;78;26729;-55
2022/10/03 15:01:42;;;;;;;1.57;1.57;;;;;;;;;;1798294;79;26276;-52
2022/10/03 15:04:28;;;;;;;1.60;1.60;;;;;;;;;;1807335;79;26745;-56
2022/10/03 15:06:59;;;;;;;1.65;1.65;;;;;;;;;;1785694;78;26271;-53
2022/10/03 15:09:39;;;;;;;1.50;1.50;;;;;;;;;;1795908;78;26758;-53
2022/10/03 15:12:12;;;;;;;1.65;1.65;;;;;;;;;;1789840;79;26723;-53
2022/10/03 15:14:40;;;;;;;1.60;1.60;;;;;;;;;;1785768;78;27232;-55
2022/10/03 15:17:18;;;;;;;1.57;1.57;;;;;;;;;;1796945;78;26694;-53
2022/10/03 15:19:47;;;;;;;1.70;1.70;;;;;;;;;;1778913;78;26272;-54
2022/10/03 15:22:16;;;;;;;1.50;1.50;;;;;;;;;;1784924;78;26303;-55
2022/10/03 15:24:44;;;;;;;1.60;1.60;;;;;;;;;;1797442;78;26300;-56
2022/10/03 15:27:18;;;;;;;1.47;1.47;;;;;;;;;;1812269;78;26264;-56
2022/10/03 15:29:46;;;;;;;1.30;1.30;;;;;;;;;;1791510;78;26331;-55
2022/10/03 15:32:21;;;;;;;1.70;1.70;;;;;;;;;;1793609;79;26308;-58
2022/10/03 15:34:49;;;;;;;1.50;1.50;;;;;;;;;;1780826;78;26548;-55
2022/10/03 15:37:17;;;;;;;1.37;1.37;;;;;;;;;;1804161;78;26280;-55
2022/10/03 15:39:47;;;;;;;1.50;1.50;;;;;;;;;;1807145;78;26264;-52
2022/10/03 15:42:19;;;;;;;1.45;1.45;;;;;;;;;;1789931;78;26353;-54
2022/10/03 15:44:52;;;;;;;1.57;1.50;;;;;;;;;;1803236;78;27244;-55
2022/10/03 15:47:27;;;;;;;1.50;1.50;;;;;;;;;;1817947;78;26350;-54